METAR UND TAF INFORMATION

METAR FOR LOWL
ADDS - METARS form results

(0541 UTC 26 June 2022)
Data provider http://aviationweather.gov/metar/data/
 
METAR text: LOWL 260520Z AUTO 30004KT CAVOK 16/15 Q1016 NOSIG
Conditions at: LOWL (LINZ (CIV/MIL) , AT) observed 0520 UTC 26 June 2022
Temperature: 16.0°C (61°F)
Dewpoint: 15.0°C (59°F) [RH = 94%]
Pressure (altimeter): 30.00 inches Hg (1016.0 mb)
Winds: from the WNW (300 degrees) at 5 MPH (4 knots; 2.1 m/s)
Visibility: 6 or more miles (10+ km)
Ceiling: ceiling and visibility are OK
Clouds: unknown
Weather: no significant weather observed at this time

METAR text: LOWL 260450Z AUTO VRB01KT CAVOK 16/15 Q1016 NOSIG
Conditions at: LOWL (LINZ (CIV/MIL) , AT) observed 0450 UTC 26 June 2022
Temperature: 16.0°C (61°F)
Dewpoint: 15.0°C (59°F) [RH = 94%]
Pressure (altimeter): 30.00 inches Hg (1016.0 mb)
Winds: variable direction winds at 1 MPH (1 knots; 0.5 m/s)
Visibility: 6 or more miles (10+ km)
Ceiling: ceiling and visibility are OK
Clouds: unknown
Weather: no significant weather observed at this time

Forecast for: LOWL (LINZ (CIV/MIL) , AT)
Text: TAF LOWL 260515Z 2606/2706 VRB03KT CAVOK TX29/2615Z TN18/2704Z
Forecast period: 0600 to 0900 UTC 26 June 2022
Forecast type: FROM: standard forecast or significant change
Winds: variable direction winds at 3 MPH (3 knots; 1.5 m/s)
Visibility: 6 or more miles (10+ km)
Ceiling: unknown
Clouds: missing
Weather: no significant weather forecast for this period
Text: BECMG 2609/2611 07007KT
Forecast period: 0900 UTC 26 June 2022 to 0600 UTC 27 June 2022
Forecast type: BECOMING: Conditions expected to become as follows by 1100 UTC 26 June 2022
Winds: from the ENE (70 degrees) at 8 MPH (7 knots; 3.6 m/s)
Visibility: 6 or more miles (10+ km)
Ceiling: unknown
Clouds: missing
Weather: no significant weather forecast for this period

 FLUGHAFENKARTE

 RUNWAY INFORMATION
Runway 09 Runway length 9843 ft Runway width 197 ft
Runway elevation 978 ft Runway displaced threshold 821 ft Runway heading 87
Runway 27 Runway length 9843 ft Runway width 197 ft
Runway elevation 963 ft Runway displaced threshold 493 ft Runway heading 267
Runway 09L Runway length 2165 ft Runway width 148 ft
Runway elevation 971 ft Runway displaced threshold 0 ft Runway heading 87
Runway 27R Runway length 2165 ft Runway width 148 ft
Runway elevation 968 ft Runway displaced threshold 0 ft Runway heading 267

 AIRPORT FREQUENCIES
Type APP Name RADAR Frequency 129.625 MHZ
Type ATIS Name ATIS Frequency 128.125 MHZ
Type TWR Name TWR Frequency 118.8 MHZ

 AIRPORT NEAR NAVIGATION AIDS